Smiths, Alabama
Current Conditions -  °F | °C
As of 2:51 PM on Thursday 27 Nov 2014 (Local Time) from KCSG Reporting Station
Clear Clear  
Wind Chill: 51°   Ceiling: Unl
Heat Index: 51°   Visibility: 10mi
Dew Point: 27°   Wind: 13mph
Humidity: 39%   Direction: 360°N
Pressure: 30.3"   Gusts: NA
Location:  32.54°N, 85.09°W
Report Text: KCSG 272051Z 36011KT 10SM CLR 11/M03 A3030 RMK AO2 SLP261 T01061028 55000
Loading
Personal Weather Stations






























Interactive Weather Map New forecast layout! Learn more

10-Day Weather Forecast

Advertisements
Track Severe Weather on mobile